sensor_id;sensor_type;location;lat;lon;timestamp;temperature;humidity
22645;DHT22;11489;50.834;6.752;2023-01-16T00:01:12;5.60;90.00
22645;DHT22;11489;50.834;6.752;2023-01-16T00:03:38;5.60;90.00
22645;DHT22;11489;50.834;6.752;2023-01-16T00:06:04;5.60;90.10
22645;DHT22;11489;50.834;6.752;2023-01-16T00:08:30;5.70;90.10
22645;DHT22;11489;50.834;6.752;2023-01-16T00:10:56;5.70;90.10
22645;DHT22;11489;50.834;6.752;2023-01-16T00:13:22;5.70;90.20
22645;DHT22;11489;50.834;6.752;2023-01-16T00:15:50;5.80;90.20
22645;DHT22;11489;50.834;6.752;2023-01-16T00:18:16;5.80;90.20
22645;DHT22;11489;50.834;6.752;2023-01-16T00:20:42;5.90;90.20
22645;DHT22;11489;50.834;6.752;2023-01-16T00:23:08;5.90;90.20
22645;DHT22;11489;50.834;6.752;2023-01-16T00:25:34;5.90;90.10
22645;DHT22;11489;50.834;6.752;2023-01-16T00:28:03;6.00;90.10
22645;DHT22;11489;50.834;6.752;2023-01-16T00:30:29;6.00;90.10
22645;DHT22;11489;50.834;6.752;2023-01-16T00:32:54;6.00;90.00
22645;DHT22;11489;50.834;6.752;2023-01-16T00:35:20;6.10;90.00
22645;DHT22;11489;50.834;6.752;2023-01-16T00:37:46;6.10;89.90
22645;DHT22;11489;50.834;6.752;2023-01-16T00:40:11;6.10;89.80
22645;DHT22;11489;50.834;6.752;2023-01-16T00:42:37;6.00;89.80
22645;DHT22;11489;50.834;6.752;2023-01-16T00:45:03;6.00;89.80
22645;DHT22;11489;50.834;6.752;2023-01-16T00:47:29;6.00;89.70
22645;DHT22;11489;50.834;6.752;2023-01-16T00:49:54;6.00;89.60
22645;DHT22;11489;50.834;6.752;2023-01-16T00:52:20;6.00;89.60
22645;DHT22;11489;50.834;6.752;2023-01-16T00:54:46;6.00;89.50
22645;DHT22;11489;50.834;6.752;2023-01-16T00:57:11;5.90;89.30
22645;DHT22;11489;50.834;6.752;2023-01-16T00:59:37;5.90;89.20
22645;DHT22;11489;50.834;6.752;2023-01-16T01:02:03;5.90;89.20
22645;DHT22;11489;50.834;6.752;2023-01-16T01:04:28;5.80;89.00
22645;DHT22;11489;50.834;6.752;2023-01-16T01:06:54;5.80;89.00
22645;DHT22;11489;50.834;6.752;2023-01-16T01:09:20;5.80;89.10
22645;DHT22;11489;50.834;6.752;2023-01-16T01:11:45;5.70;89.30
22645;DHT22;11489;50.834;6.752;2023-01-16T01:14:11;5.60;89.40
22645;DHT22;11489;50.834;6.752;2023-01-16T01:16:37;5.60;89.60
22645;DHT22;11489;50.834;6.752;2023-01-16T01:19:02;5.60;89.80
22645;DHT22;11489;50.834;6.752;2023-01-16T01:21:28;5.60;89.90
22645;DHT22;11489;50.834;6.752;2023-01-16T01:23:55;5.50;89.80
22645;DHT22;11489;50.834;6.752;2023-01-16T01:26:21;5.50;89.80
22645;DHT22;11489;50.834;6.752;2023-01-16T01:28:47;5.50;89.80
22645;DHT22;11489;50.834;6.752;2023-01-16T01:31:13;5.50;90.00
22645;DHT22;11489;50.834;6.752;2023-01-16T01:33:39;5.50;90.10
22645;DHT22;11489;50.834;6.752;2023-01-16T01:36:05;5.50;90.10
22645;DHT22;11489;50.834;6.752;2023-01-16T01:38:32;5.50;90.50
22645;DHT22;11489;50.834;6.752;2023-01-16T01:40:58;5.60;90.20
22645;DHT22;11489;50.834;6.752;2023-01-16T01:43:45;5.60;90.20
22645;DHT22;11489;50.834;6.752;2023-01-16T01:46:26;5.60;90.10
22645;DHT22;11489;50.834;6.752;2023-01-16T01:49:06;5.60;90.20
22645;DHT22;11489;50.834;6.752;2023-01-16T01:51:39;5.60;90.20
22645;DHT22;11489;50.834;6.752;2023-01-16T01:54:14;5.60;90.10
22645;DHT22;11489;50.834;6.752;2023-01-16T01:56:57;5.60;90.20
22645;DHT22;11489;50.834;6.752;2023-01-16T01:59:28;5.50;89.50
22645;DHT22;11489;50.834;6.752;2023-01-16T02:01:55;5.50;89.60
22645;DHT22;11489;50.834;6.752;2023-01-16T02:04:28;5.40;89.40
22645;DHT22;11489;50.834;6.752;2023-01-16T02:06:58;5.40;89.30
22645;DHT22;11489;50.834;6.752;2023-01-16T02:09:26;5.30;89.30
22645;DHT22;11489;50.834;6.752;2023-01-16T02:12:02;5.20;89.40
22645;DHT22;11489;50.834;6.752;2023-01-16T02:14:32;5.10;89.20
22645;DHT22;11489;50.834;6.752;2023-01-16T02:17:04;5.10;89.30
22645;DHT22;11489;50.834;6.752;2023-01-16T02:19:54;5.00;89.30
22645;DHT22;11489;50.834;6.752;2023-01-16T02:36:12;4.70;90.20
22645;DHT22;11489;50.834;6.752;2023-01-16T02:41:41;4.60;90.10
22645;DHT22;11489;50.834;6.752;2023-01-16T02:47:22;4.60;90.40
22645;DHT22;11489;50.834;6.752;2023-01-16T02:50:18;4.60;90.70
22645;DHT22;11489;50.834;6.752;2023-01-16T02:53:02;4.60;90.80
22645;DHT22;11489;50.834;6.752;2023-01-16T02:55:50;4.70;90.70
22645;DHT22;11489;50.834;6.752;2023-01-16T02:58:19;4.70;90.70
22645;DHT22;11489;50.834;6.752;2023-01-16T03:00:56;4.70;90.60
22645;DHT22;11489;50.834;6.752;2023-01-16T03:04:02;4.70;90.50
22645;DHT22;11489;50.834;6.752;2023-01-16T03:09:37;4.60;90.10
22645;DHT22;11489;50.834;6.752;2023-01-16T03:12:27;4.60;89.90
22645;DHT22;11489;50.834;6.752;2023-01-16T03:15:13;4.50;89.70
22645;DHT22;11489;50.834;6.752;2023-01-16T03:20:50;4.40;89.40
22645;DHT22;11489;50.834;6.752;2023-01-16T03:23:26;4.30;89.60
22645;DHT22;11489;50.834;6.752;2023-01-16T03:26:26;4.20;89.80
22645;DHT22;11489;50.834;6.752;2023-01-16T03:29:08;4.10;90.00
22645;DHT22;11489;50.834;6.752;2023-01-16T03:31:52;4.10;90.10
22645;DHT22;11489;50.834;6.752;2023-01-16T03:34:41;4.00;90.30
22645;DHT22;11489;50.834;6.752;2023-01-16T03:37:38;4.00;90.50
22645;DHT22;11489;50.834;6.752;2023-01-16T03:40:12;4.00;90.60
22645;DHT22;11489;50.834;6.752;2023-01-16T03:42:55;4.00;90.90
22645;DHT22;11489;50.834;6.752;2023-01-16T03:45:33;4.00;91.00
22645;DHT22;11489;50.834;6.752;2023-01-16T03:48:45;4.00;91.20
22645;DHT22;11489;50.834;6.752;2023-01-16T03:51:20;4.10;91.00
22645;DHT22;11489;50.834;6.752;2023-01-16T03:53:59;4.10;91.00
22645;DHT22;11489;50.834;6.752;2023-01-16T03:56:39;4.10;91.00
22645;DHT22;11489;50.834;6.752;2023-01-16T03:59:06;4.00;90.90
22645;DHT22;11489;50.834;6.752;2023-01-16T04:04:29;4.10;91.00
22645;DHT22;11489;50.834;6.752;2023-01-16T04:07:11;4.10;91.00
22645;DHT22;11489;50.834;6.752;2023-01-16T04:09:46;4.10;91.00
22645;DHT22;11489;50.834;6.752;2023-01-16T04:12:15;4.00;91.00
22645;DHT22;11489;50.834;6.752;2023-01-16T04:14:48;4.00;91.00
22645;DHT22;11489;50.834;6.752;2023-01-16T04:17:17;4.00;91.10
22645;DHT22;11489;50.834;6.752;2023-01-16T04:19:43;4.00;91.20
22645;DHT22;11489;50.834;6.752;2023-01-16T04:22:28;4.00;91.20
22645;DHT22;11489;50.834;6.752;2023-01-16T04:24:57;4.10;91.20
22645;DHT22;11489;50.834;6.752;2023-01-16T04:27:23;4.10;91.20
22645;DHT22;11489;50.834;6.752;2023-01-16T04:29:49;4.10;91.30
22645;DHT22;11489;50.834;6.752;2023-01-16T04:32:16;4.10;91.30
22645;DHT22;11489;50.834;6.752;2023-01-16T04:34:41;4.10;91.20
22645;DHT22;11489;50.834;6.752;2023-01-16T04:37:07;4.10;91.30
22645;DHT22;11489;50.834;6.752;2023-01-16T04:39:33;4.10;91.30
22645;DHT22;11489;50.834;6.752;2023-01-16T04:41:58;4.20;91.40
22645;DHT22;11489;50.834;6.752;2023-01-16T04:44:24;4.20;91.40
22645;DHT22;11489;50.834;6.752;2023-01-16T04:46:51;4.20;91.40
22645;DHT22;11489;50.834;6.752;2023-01-16T04:49:16;4.20;91.40
22645;DHT22;11489;50.834;6.752;2023-01-16T04:51:42;4.30;91.40
22645;DHT22;11489;50.834;6.752;2023-01-16T04:54:13;4.30;91.50
22645;DHT22;11489;50.834;6.752;2023-01-16T04:56:41;4.30;91.60
22645;DHT22;11489;50.834;6.752;2023-01-16T04:59:07;4.40;91.60
22645;DHT22;11489;50.834;6.752;2023-01-16T05:01:33;4.40;91.70
22645;DHT22;11489;50.834;6.752;2023-01-16T05:04:04;4.40;91.60
22645;DHT22;11489;50.834;6.752;2023-01-16T05:06:31;4.50;91.60
22645;DHT22;11489;50.834;6.752;2023-01-16T05:08:57;4.50;91.60
22645;DHT22;11489;50.834;6.752;2023-01-16T05:11:22;4.60;91.60
22645;DHT22;11489;50.834;6.752;2023-01-16T05:13:48;4.60;91.60
22645;DHT22;11489;50.834;6.752;2023-01-16T05:16:14;4.70;91.60
22645;DHT22;11489;50.834;6.752;2023-01-16T05:18:39;4.70;91.60
22645;DHT22;11489;50.834;6.752;2023-01-16T05:21:05;4.80;91.60
22645;DHT22;11489;50.834;6.752;2023-01-16T05:23:32;4.90;91.60
22645;DHT22;11489;50.834;6.752;2023-01-16T05:26:06;4.90;91.60
22645;DHT22;11489;50.834;6.752;2023-01-16T05:28:33;5.00;91.60
22645;DHT22;11489;50.834;6.752;2023-01-16T05:30:59;5.00;91.60
22645;DHT22;11489;50.834;6.752;2023-01-16T05:33:25;5.10;91.60
22645;DHT22;11489;50.834;6.752;2023-01-16T05:35:51;5.10;91.50
22645;DHT22;11489;50.834;6.752;2023-01-16T05:38:17;5.20;91.50
22645;DHT22;11489;50.834;6.752;2023-01-16T05:40:43;5.20;91.40
22645;DHT22;11489;50.834;6.752;2023-01-16T05:43:09;5.30;91.40
22645;DHT22;11489;50.834;6.752;2023-01-16T05:45:35;5.30;91.40
22645;DHT22;11489;50.834;6.752;2023-01-16T05:48:01;5.30;91.20
22645;DHT22;11489;50.834;6.752;2023-01-16T05:50:27;5.40;91.20
22645;DHT22;11489;50.834;6.752;2023-01-16T05:52:53;5.40;91.20
22645;DHT22;11489;50.834;6.752;2023-01-16T05:55:18;5.50;91.30
22645;DHT22;11489;50.834;6.752;2023-01-16T05:57:44;5.50;91.30
22645;DHT22;11489;50.834;6.752;2023-01-16T06:00:10;5.50;91.20
22645;DHT22;11489;50.834;6.752;2023-01-16T06:02:36;5.50;91.20
22645;DHT22;11489;50.834;6.752;2023-01-16T06:05:02;5.60;91.20
22645;DHT22;11489;50.834;6.752;2023-01-16T06:07:28;5.60;91.30
22645;DHT22;11489;50.834;6.752;2023-01-16T06:09:53;5.60;91.20
22645;DHT22;11489;50.834;6.752;2023-01-16T06:12:19;5.70;91.20
22645;DHT22;11489;50.834;6.752;2023-01-16T06:14:45;5.70;91.10
22645;DHT22;11489;50.834;6.752;2023-01-16T06:17:11;5.70;91.40
22645;DHT22;11489;50.834;6.752;2023-01-16T06:19:40;5.80;91.10
22645;DHT22;11489;50.834;6.752;2023-01-16T06:22:06;5.80;91.20
22645;DHT22;11489;50.834;6.752;2023-01-16T06:24:31;5.80;91.10
22645;DHT22;11489;50.834;6.752;2023-01-16T06:26:57;5.90;91.00
22645;DHT22;11489;50.834;6.752;2023-01-16T06:29:23;5.90;91.00
22645;DHT22;11489;50.834;6.752;2023-01-16T06:31:48;5.90;91.00
22645;DHT22;11489;50.834;6.752;2023-01-16T06:34:14;5.90;90.90
22645;DHT22;11489;50.834;6.752;2023-01-16T06:36:40;5.90;90.80
22645;DHT22;11489;50.834;6.752;2023-01-16T06:39:07;5.90;90.80
22645;DHT22;11489;50.834;6.752;2023-01-16T06:41:33;5.90;90.80
22645;DHT22;11489;50.834;6.752;2023-01-16T06:43:59;5.90;90.70
22645;DHT22;11489;50.834;6.752;2023-01-16T06:46:25;5.90;90.70
22645;DHT22;11489;50.834;6.752;2023-01-16T06:48:50;6.00;90.70
22645;DHT22;11489;50.834;6.752;2023-01-16T06:51:16;6.00;90.70
22645;DHT22;11489;50.834;6.752;2023-01-16T06:53:41;6.00;90.70
22645;DHT22;11489;50.834;6.752;2023-01-16T06:56:07;6.00;90.60
22645;DHT22;11489;50.834;6.752;2023-01-16T06:58:33;6.00;90.60
22645;DHT22;11489;50.834;6.752;2023-01-16T07:00:58;6.00;90.60
22645;DHT22;11489;50.834;6.752;2023-01-16T07:03:24;6.00;90.60
22645;DHT22;11489;50.834;6.752;2023-01-16T07:05:50;6.00;90.60
22645;DHT22;11489;50.834;6.752;2023-01-16T07:08:16;6.00;90.60
22645;DHT22;11489;50.834;6.752;2023-01-16T07:10:41;6.00;90.60
22645;DHT22;11489;50.834;6.752;2023-01-16T07:13:07;6.00;90.60
22645;DHT22;11489;50.834;6.752;2023-01-16T07:15:33;6.10;90.60
22645;DHT22;11489;50.834;6.752;2023-01-16T07:18:17;6.10;90.60
22645;DHT22;11489;50.834;6.752;2023-01-16T07:21:04;6.10;90.50
22645;DHT22;11489;50.834;6.752;2023-01-16T07:24:00;6.10;90.50
22645;DHT22;11489;50.834;6.752;2023-01-16T07:26:27;6.10;90.40
22645;DHT22;11489;50.834;6.752;2023-01-16T07:28:53;6.10;90.40
22645;DHT22;11489;50.834;6.752;2023-01-16T07:31:20;6.20;90.50
22645;DHT22;11489;50.834;6.752;2023-01-16T07:33:46;6.10;90.40
22645;DHT22;11489;50.834;6.752;2023-01-16T07:36:12;6.10;90.40
22645;DHT22;11489;50.834;6.752;2023-01-16T07:38:37;6.20;90.40
22645;DHT22;11489;50.834;6.752;2023-01-16T07:41:03;6.20;90.40
22645;DHT22;11489;50.834;6.752;2023-01-16T07:43:29;6.10;90.30
22645;DHT22;11489;50.834;6.752;2023-01-16T07:45:55;6.10;90.20
22645;DHT22;11489;50.834;6.752;2023-01-16T07:48:24;6.10;90.30
22645;DHT22;11489;50.834;6.752;2023-01-16T07:50:54;6.00;90.20
22645;DHT22;11489;50.834;6.752;2023-01-16T07:53:22;6.00;90.20
22645;DHT22;11489;50.834;6.752;2023-01-16T07:55:57;6.00;90.30
22645;DHT22;11489;50.834;6.752;2023-01-16T07:58:23;6.00;90.20
22645;DHT22;11489;50.834;6.752;2023-01-16T08:00:52;5.90;90.30
22645;DHT22;11489;50.834;6.752;2023-01-16T08:03:17;5.90;90.40
22645;DHT22;11489;50.834;6.752;2023-01-16T08:05:43;5.90;90.40
22645;DHT22;11489;50.834;6.752;2023-01-16T08:08:10;5.80;90.40
22645;DHT22;11489;50.834;6.752;2023-01-16T08:10:36;5.80;90.40
22645;DHT22;11489;50.834;6.752;2023-01-16T08:13:03;5.80;90.50
22645;DHT22;11489;50.834;6.752;2023-01-16T08:15:29;5.70;90.40
22645;DHT22;11489;50.834;6.752;2023-01-16T08:17:55;5.70;90.50
22645;DHT22;11489;50.834;6.752;2023-01-16T08:20:21;5.70;90.50
22645;DHT22;11489;50.834;6.752;2023-01-16T08:22:49;5.70;90.50
22645;DHT22;11489;50.834;6.752;2023-01-16T08:25:20;5.70;90.50
22645;DHT22;11489;50.834;6.752;2023-01-16T08:27:46;5.60;90.60
22645;DHT22;11489;50.834;6.752;2023-01-16T08:30:14;5.60;90.60
22645;DHT22;11489;50.834;6.752;2023-01-16T08:32:40;5.60;90.70
22645;DHT22;11489;50.834;6.752;2023-01-16T08:35:06;5.60;90.70
22645;DHT22;11489;50.834;6.752;2023-01-16T08:37:32;5.60;90.80
22645;DHT22;11489;50.834;6.752;2023-01-16T08:39:58;5.60;90.70
22645;DHT22;11489;50.834;6.752;2023-01-16T08:42:24;5.60;90.80
22645;DHT22;11489;50.834;6.752;2023-01-16T08:45:09;5.60;90.80
22645;DHT22;11489;50.834;6.752;2023-01-16T08:47:54;5.60;90.80
22645;DHT22;11489;50.834;6.752;2023-01-16T08:50:40;5.60;90.70
22645;DHT22;11489;50.834;6.752;2023-01-16T08:53:24;5.60;91.10
22645;DHT22;11489;50.834;6.752;2023-01-16T08:55:50;5.60;90.80
22645;DHT22;11489;50.834;6.752;2023-01-16T08:58:15;5.60;90.80
22645;DHT22;11489;50.834;6.752;2023-01-16T09:00:41;5.60;90.80
22645;DHT22;11489;50.834;6.752;2023-01-16T09:03:07;5.50;90.80
22645;DHT22;11489;50.834;6.752;2023-01-16T09:05:33;5.60;90.80
22645;DHT22;11489;50.834;6.752;2023-01-16T09:07:58;5.50;90.80
22645;DHT22;11489;50.834;6.752;2023-01-16T09:10:24;5.50;90.80
22645;DHT22;11489;50.834;6.752;2023-01-16T09:12:50;5.50;90.90
22645;DHT22;11489;50.834;6.752;2023-01-16T09:15:35;5.50;90.80
22645;DHT22;11489;50.834;6.752;2023-01-16T09:18:01;5.50;90.90
22645;DHT22;11489;50.834;6.752;2023-01-16T09:20:26;5.50;90.90
22645;DHT22;11489;50.834;6.752;2023-01-16T09:23:02;5.60;91.00
22645;DHT22;11489;50.834;6.752;2023-01-16T09:25:30;5.60;90.90
22645;DHT22;11489;50.834;6.752;2023-01-16T09:27:56;5.60;91.00
22645;DHT22;11489;50.834;6.752;2023-01-16T09:30:22;5.60;91.00
22645;DHT22;11489;50.834;6.752;2023-01-16T09:32:48;5.60;90.90
22645;DHT22;11489;50.834;6.752;2023-01-16T09:35:14;5.60;90.90
22645;DHT22;11489;50.834;6.752;2023-01-16T09:37:45;5.60;90.90
22645;DHT22;11489;50.834;6.752;2023-01-16T09:40:18;5.60;91.00
22645;DHT22;11489;50.834;6.752;2023-01-16T09:45:56;5.60;90.70
22645;DHT22;11489;50.834;6.752;2023-01-16T09:48:27;5.60;90.90
22645;DHT22;11489;50.834;6.752;2023-01-16T09:50:57;5.60;91.00
22645;DHT22;11489;50.834;6.752;2023-01-16T09:53:40;5.70;91.00
22645;DHT22;11489;50.834;6.752;2023-01-16T09:56:28;5.70;91.00
22645;DHT22;11489;50.834;6.752;2023-01-16T10:01:53;5.70;91.40
22645;DHT22;11489;50.834;6.752;2023-01-16T10:04:23;5.80;91.10
22645;DHT22;11489;50.834;6.752;2023-01-16T10:09:51;5.80;90.90
22645;DHT22;11489;50.834;6.752;2023-01-16T10:12:21;5.80;91.20
22645;DHT22;11489;50.834;6.752;2023-01-16T10:25:46;6.00;90.90
22645;DHT22;11489;50.834;6.752;2023-01-16T10:31:32;6.10;90.70
22645;DHT22;11489;50.834;6.752;2023-01-16T10:34:18;6.10;91.10
22645;DHT22;11489;50.834;6.752;2023-01-16T10:36:48;6.20;91.10
22645;DHT22;11489;50.834;6.752;2023-01-16T10:39:17;6.20;91.10
22645;DHT22;11489;50.834;6.752;2023-01-16T10:41:49;6.30;91.20
22645;DHT22;11489;50.834;6.752;2023-01-16T10:44:35;6.30;91.20
22645;DHT22;11489;50.834;6.752;2023-01-16T10:47:28;6.40;91.40
22645;DHT22;11489;50.834;6.752;2023-01-16T10:50:15;6.50;91.50
22645;DHT22;11489;50.834;6.752;2023-01-16T10:52:41;6.60;91.60
22645;DHT22;11489;50.834;6.752;2023-01-16T10:55:09;6.70;91.50
22645;DHT22;11489;50.834;6.752;2023-01-16T10:57:48;6.80;91.40
22645;DHT22;11489;50.834;6.752;2023-01-16T11:00:24;6.90;91.10
22645;DHT22;11489;50.834;6.752;2023-01-16T11:02:58;6.90;91.00
22645;DHT22;11489;50.834;6.752;2023-01-16T11:05:35;7.00;91.40
22645;DHT22;11489;50.834;6.752;2023-01-16T11:08:06;7.00;91.50
22645;DHT22;11489;50.834;6.752;2023-01-16T11:10:33;7.10;91.70
22645;DHT22;11489;50.834;6.752;2023-01-16T11:12:59;7.30;92.00
22645;DHT22;11489;50.834;6.752;2023-01-16T11:16:01;7.40;91.90
22645;DHT22;11489;50.834;6.752;2023-01-16T11:18:46;7.60;91.40
22645;DHT22;11489;50.834;6.752;2023-01-16T11:21:31;7.70;91.70
22645;DHT22;11489;50.834;6.752;2023-01-16T11:24:00;7.80;91.20
22645;DHT22;11489;50.834;6.752;2023-01-16T11:26:27;7.90;91.80
22645;DHT22;11489;50.834;6.752;2023-01-16T11:28:53;8.00;91.90
22645;DHT22;11489;50.834;6.752;2023-01-16T11:31:22;8.20;91.50
22645;DHT22;11489;50.834;6.752;2023-01-16T11:34:01;8.20;91.20
22645;DHT22;11489;50.834;6.752;2023-01-16T11:36:32;8.30;90.70
22645;DHT22;11489;50.834;6.752;2023-01-16T11:38:59;8.40;90.80
22645;DHT22;11489;50.834;6.752;2023-01-16T11:41:32;8.40;90.70
22645;DHT22;11489;50.834;6.752;2023-01-16T11:47:02;8.40;88.70
22645;DHT22;11489;50.834;6.752;2023-01-16T11:49:34;8.30;89.80
22645;DHT22;11489;50.834;6.752;2023-01-16T11:52:00;8.30;89.40
22645;DHT22;11489;50.834;6.752;2023-01-16T11:54:32;8.30;89.70
22645;DHT22;11489;50.834;6.752;2023-01-16T11:57:27;8.20;89.50
22645;DHT22;11489;50.834;6.752;2023-01-16T12:02:41;8.10;88.70
22645;DHT22;11489;50.834;6.752;2023-01-16T12:05:37;8.00;89.00
22645;DHT22;11489;50.834;6.752;2023-01-16T12:14:22;7.80;88.80
22645;DHT22;11489;50.834;6.752;2023-01-16T12:17:25;7.70;89.00
22645;DHT22;11489;50.834;6.752;2023-01-16T12:20:04;7.70;89.10
22645;DHT22;11489;50.834;6.752;2023-01-16T12:23:05;7.60;89.10
22645;DHT22;11489;50.834;6.752;2023-01-16T12:32:01;7.60;90.20
22645;DHT22;11489;50.834;6.752;2023-01-16T12:37:16;7.70;90.20
22645;DHT22;11489;50.834;6.752;2023-01-16T12:39:54;7.70;90.10
22645;DHT22;11489;50.834;6.752;2023-01-16T12:42:36;7.60;89.80
22645;DHT22;11489;50.834;6.752;2023-01-16T12:49:04;7.60;89.20
22645;DHT22;11489;50.834;6.752;2023-01-16T12:54:35;7.50;89.50
22645;DHT22;11489;50.834;6.752;2023-01-16T13:00:10;7.50;90.00
22645;DHT22;11489;50.834;6.752;2023-01-16T13:03:02;7.50;89.00
22645;DHT22;11489;50.834;6.752;2023-01-16T13:05:35;7.40;89.00
22645;DHT22;11489;50.834;6.752;2023-01-16T13:08:21;7.40;90.00
22645;DHT22;11489;50.834;6.752;2023-01-16T13:10:52;7.40;89.40
22645;DHT22;11489;50.834;6.752;2023-01-16T13:13:54;7.40;89.90
22645;DHT22;11489;50.834;6.752;2023-01-16T13:16:30;7.40;90.00
22645;DHT22;11489;50.834;6.752;2023-01-16T13:19:22;7.40;89.60
22645;DHT22;11489;50.834;6.752;2023-01-16T13:24:42;7.40;89.80
22645;DHT22;11489;50.834;6.752;2023-01-16T13:27:19;7.40;89.90
22645;DHT22;11489;50.834;6.752;2023-01-16T13:29:50;7.40;90.00
22645;DHT22;11489;50.834;6.752;2023-01-16T13:32:46;7.30;89.40
22645;DHT22;11489;50.834;6.752;2023-01-16T13:36:03;7.20;88.40
22645;DHT22;11489;50.834;6.752;2023-01-16T13:41:37;7.10;88.80
22645;DHT22;11489;50.834;6.752;2023-01-16T13:44:15;7.00;89.20
22645;DHT22;11489;50.834;6.752;2023-01-16T13:47:17;7.00;89.30
22645;DHT22;11489;50.834;6.752;2023-01-16T13:49:55;6.90;89.50
22645;DHT22;11489;50.834;6.752;2023-01-16T13:52:25;6.90;89.60
22645;DHT22;11489;50.834;6.752;2023-01-16T13:54:55;6.80;89.90
22645;DHT22;11489;50.834;6.752;2023-01-16T13:57:23;6.80;90.00
22645;DHT22;11489;50.834;6.752;2023-01-16T13:59:52;6.80;90.00
22645;DHT22;11489;50.834;6.752;2023-01-16T14:08:16;6.70;89.80
22645;DHT22;11489;50.834;6.752;2023-01-16T14:17:30;6.60;90.10
22645;DHT22;11489;50.834;6.752;2023-01-16T14:23:28;6.50;90.10
22645;DHT22;11489;50.834;6.752;2023-01-16T14:26:19;6.50;90.20
22645;DHT22;11489;50.834;6.752;2023-01-16T14:28:49;6.50;90.30
22645;DHT22;11489;50.834;6.752;2023-01-16T14:31:28;6.40;90.40
22645;DHT22;11489;50.834;6.752;2023-01-16T14:33:58;6.40;90.40
22645;DHT22;11489;50.834;6.752;2023-01-16T14:36:27;6.40;90.40
22645;DHT22;11489;50.834;6.752;2023-01-16T14:38:54;6.40;90.40
22645;DHT22;11489;50.834;6.752;2023-01-16T14:41:27;6.40;90.50
22645;DHT22;11489;50.834;6.752;2023-01-16T14:44:20;6.40;90.50
22645;DHT22;11489;50.834;6.752;2023-01-16T14:47:26;6.40;90.50
22645;DHT22;11489;50.834;6.752;2023-01-16T14:50:14;6.40;90.50
22645;DHT22;11489;50.834;6.752;2023-01-16T14:56:21;6.40;90.60
22645;DHT22;11489;50.834;6.752;2023-01-16T15:01:49;6.40;90.30
22645;DHT22;11489;50.834;6.752;2023-01-16T15:05:29;6.40;90.60
22645;DHT22;11489;50.834;6.752;2023-01-16T15:10:16;6.40;90.40
22645;DHT22;11489;50.834;6.752;2023-01-16T15:12:44;6.40;90.50
22645;DHT22;11489;50.834;6.752;2023-01-16T15:15:22;6.40;90.60
22645;DHT22;11489;50.834;6.752;2023-01-16T15:17:51;6.40;90.40
22645;DHT22;11489;50.834;6.752;2023-01-16T15:20:36;6.40;90.50
22645;DHT22;11489;50.834;6.752;2023-01-16T15:23:25;6.40;90.50
22645;DHT22;11489;50.834;6.752;2023-01-16T15:31:36;6.50;90.30
22645;DHT22;11489;50.834;6.752;2023-01-16T15:36:49;6.40;90.40
22645;DHT22;11489;50.834;6.752;2023-01-16T15:42:00;6.50;90.50
22645;DHT22;11489;50.834;6.752;2023-01-16T15:44:46;6.40;90.90
22645;DHT22;11489;50.834;6.752;2023-01-16T15:50:24;6.40;90.50
22645;DHT22;11489;50.834;6.752;2023-01-16T15:52:52;6.40;90.50
22645;DHT22;11489;50.834;6.752;2023-01-16T15:55:24;6.30;90.50
22645;DHT22;11489;50.834;6.752;2023-01-16T15:57:56;6.40;90.50
22645;DHT22;11489;50.834;6.752;2023-01-16T16:00:37;6.30;90.50
22645;DHT22;11489;50.834;6.752;2023-01-16T16:05:40;6.30;90.50
22645;DHT22;11489;50.834;6.752;2023-01-16T16:08:17;6.30;90.60
22645;DHT22;11489;50.834;6.752;2023-01-16T16:10:44;6.30;90.60
22645;DHT22;11489;50.834;6.752;2023-01-16T16:13:30;6.30;90.60
22645;DHT22;11489;50.834;6.752;2023-01-16T16:15:59;6.30;90.70
22645;DHT22;11489;50.834;6.752;2023-01-16T16:18:53;6.30;90.60
22645;DHT22;11489;50.834;6.752;2023-01-16T16:21:21;6.20;90.50
22645;DHT22;11489;50.834;6.752;2023-01-16T16:24:11;6.20;90.60
22645;DHT22;11489;50.834;6.752;2023-01-16T16:26:41;6.20;90.60
22645;DHT22;11489;50.834;6.752;2023-01-16T16:29:18;6.20;90.70
22645;DHT22;11489;50.834;6.752;2023-01-16T16:31:44;6.20;90.60
22645;DHT22;11489;50.834;6.752;2023-01-16T16:34:22;6.10;90.70
22645;DHT22;11489;50.834;6.752;2023-01-16T16:36:51;6.10;90.70
22645;DHT22;11489;50.834;6.752;2023-01-16T16:41:54;6.10;90.70
22645;DHT22;11489;50.834;6.752;2023-01-16T16:44:46;6.00;90.80
22645;DHT22;11489;50.834;6.752;2023-01-16T16:47:30;6.00;90.80
22645;DHT22;11489;50.834;6.752;2023-01-16T16:49:56;6.00;90.80
22645;DHT22;11489;50.834;6.752;2023-01-16T16:54:54;5.90;90.80
22645;DHT22;11489;50.834;6.752;2023-01-16T16:57:20;5.90;90.90
22645;DHT22;11489;50.834;6.752;2023-01-16T16:59:47;5.80;90.90
22645;DHT22;11489;50.834;6.752;2023-01-16T17:02:13;5.80;90.90
22645;DHT22;11489;50.834;6.752;2023-01-16T17:04:39;5.80;90.90
22645;DHT22;11489;50.834;6.752;2023-01-16T17:07:05;5.80;90.90
22645;DHT22;11489;50.834;6.752;2023-01-16T17:09:31;5.70;90.90
22645;DHT22;11489;50.834;6.752;2023-01-16T17:12:18;5.70;90.90
22645;DHT22;11489;50.834;6.752;2023-01-16T17:14:46;5.70;91.00
22645;DHT22;11489;50.834;6.752;2023-01-16T17:17:14;5.70;90.80
22645;DHT22;11489;50.834;6.752;2023-01-16T17:19:40;5.70;90.80
22645;DHT22;11489;50.834;6.752;2023-01-16T17:22:06;5.70;90.80
22645;DHT22;11489;50.834;6.752;2023-01-16T17:24:32;5.60;90.80
22645;DHT22;11489;50.834;6.752;2023-01-16T17:26:58;5.70;90.80
22645;DHT22;11489;50.834;6.752;2023-01-16T17:29:26;5.60;90.80
22645;DHT22;11489;50.834;6.752;2023-01-16T17:31:53;5.60;90.80
22645;DHT22;11489;50.834;6.752;2023-01-16T17:34:20;5.70;90.80
22645;DHT22;11489;50.834;6.752;2023-01-16T17:36:46;5.70;90.80
22645;DHT22;11489;50.834;6.752;2023-01-16T17:39:12;5.70;90.90
22645;DHT22;11489;50.834;6.752;2023-01-16T17:41:40;5.70;90.90
22645;DHT22;11489;50.834;6.752;2023-01-16T17:44:17;5.70;90.80
22645;DHT22;11489;50.834;6.752;2023-01-16T17:47:02;5.70;90.80
22645;DHT22;11489;50.834;6.752;2023-01-16T17:49:28;5.60;90.80
22645;DHT22;11489;50.834;6.752;2023-01-16T17:51:57;5.60;90.80
22645;DHT22;11489;50.834;6.752;2023-01-16T17:54:23;5.60;90.80
22645;DHT22;11489;50.834;6.752;2023-01-16T17:57:07;5.60;90.80
22645;DHT22;11489;50.834;6.752;2023-01-16T17:59:33;5.60;90.80
22645;DHT22;11489;50.834;6.752;2023-01-16T18:01:59;5.60;90.90
22645;DHT22;11489;50.834;6.752;2023-01-16T18:04:24;5.60;90.90
22645;DHT22;11489;50.834;6.752;2023-01-16T18:06:52;5.60;90.90
22645;DHT22;11489;50.834;6.752;2023-01-16T18:09:18;5.60;91.00
22645;DHT22;11489;50.834;6.752;2023-01-16T18:11:44;5.60;91.00
22645;DHT22;11489;50.834;6.752;2023-01-16T18:14:30;5.60;91.00
22645;DHT22;11489;50.834;6.752;2023-01-16T18:17:17;5.60;91.00
22645;DHT22;11489;50.834;6.752;2023-01-16T18:19:56;5.60;91.00
22645;DHT22;11489;50.834;6.752;2023-01-16T18:22:30;5.60;91.00
22645;DHT22;11489;50.834;6.752;2023-01-16T18:24:57;5.60;91.00
22645;DHT22;11489;50.834;6.752;2023-01-16T18:27:23;5.50;91.10
22645;DHT22;11489;50.834;6.752;2023-01-16T18:29:49;5.50;91.10
22645;DHT22;11489;50.834;6.752;2023-01-16T18:32:15;5.50;91.10